• Join FlightAware (Why Join?)
  • Login
  • US Flag 
11:17PM EDT


 

Airport Tracker/Info


-or-


 

Live Flight TrackerFlight Track Log ✈ N711MD ✈ 06-Jul-2013 ✈ KOWD - KHVN

Flight Track Log - Related Links

Times and Time Zones

All times are in EDT time to prevent confusion due to time zone crossing. See the N711MD flight status page for this flight to view local times or setup timezone preferences in your user account.

Time Position Orientation Groundspeed Altitude Reporting Facility
EDT Latitude Longitude Course Direction KTS MPH feet Rate Location/Type
09:41PM 42.2167 -71.1833 298° West 134 154 1,100  Level KA90
09:42PM 42.2500 -71.2667 298° West 196 226 3,000 1,680 Climbing KA90
09:43PM 42.2333 -71.3333 251° West 213 245 5,200 2,100 Climbing KA90
09:44PM 42.2333 -71.4167 270° West 205 236 7,200 1,560 Climbing KA90
09:45PM 42.2131 -71.4842 248° West 217 250 8,000 420 Climbing Boston Center
09:46PM 42.2033 -71.5797 262° West 263 303 8,000  Level Boston Center
09:47PM 42.1872 -71.6781 258° West 272 313 8,000  Level Boston Center
09:48PM 42.1631 -71.7736 251° West 262 302 8,000  Level Boston Center
09:49PM 42.1406 -71.8744 253° West 258 297 8,000  Level Boston Center
09:50PM 42.0992 -71.9533 235° Southwest 267 307 8,000  Level Boston Center
09:51PM 42.0411 -72.0125 217° Southwest 265 305 8,000  Level Boston Center
09:52PM 41.9808 -72.0797 220° Southwest 267 307 8,000  Level Boston Center
09:53PM 41.9269 -72.1444 222° Southwest 264 304 8,000  Level Boston Center
09:54PM 41.8708 -72.2086 220° Southwest 265 305 8,000  Level Boston Center
09:55PM 41.8125 -72.2758 221° Southwest 266 306 8,000 -540 Level Boston Center
09:56PM 41.7542 -72.3428 221° Southwest 271 312 7,000 -960 Descending Boston Center
09:58PM 41.6917 -72.4122 220° Southwest 266 306 6,000 -720 Descending Boston Center
09:59PM 41.6375 -72.4761 221° Southwest 261 300 5,500 -720 Descending Boston Center
10:01PM 41.5333 -72.6000 222° Southwest 247 284 4,000 -540 Descending New York TRACON
10:01PM 41.4833 -72.6500 217° Southwest 225 259 4,000 -360 Level New York TRACON
10:02PM 41.4333 -72.7000 217° Southwest 225 259 3,400 -660 Descending New York TRACON
10:04PM 41.3833 -72.7500 217° Southwest 223 257 2,700 -720 Descending New York TRACON
10:05PM 41.3500 -72.8167 236° Southwest 227 261 2,000 -720 Descending New York TRACON